^^
Your Local Weather - Clay, NY Station Historical Data
Daily Summary for February 1, 2018 Units:  Both    English   Metric
« Previous Day
Next Day »
Daily Weekly Monthly Yearly Custom
  High: Low: Average:
Temperature: 46.6 °F /  8.1 °C 23.1 °F /  -4.9 °C 36.4 °F /  2.4 °C
Dew Point: 33.7 °F /  0.9 °C 16.4 °F /  -8.7 °C 24.6 °F /  -4.1 °C
Humidity: 82% 52% 63%
Wind Speed: 8.0mph /  12.9km/h - 4.2mph /  6.8km/h
Wind Gust: 15.0mph /  24.1km/h - -
Wind- - SW
Pressure: 29.94 in /  1013.8 hPa 29.68 in /  1005 hPa -
Precipitation: 0.08 in /  2.03 mm    
Historical Graphs
 
 
Tabular Data for February 1, 2018
Time Temperature Dew Point Pressure Wind Wind Speed Wind Gust Humidity Rainfall Rate (Hourly) solar
00:02 32.9 °F /  0.5 °C 17.2 °F /  -8.2 °C 29.79in /  1008.7hPa South 4.0mph /  6.4km/h 4.0mph /  6.4km/h 52% 0.00in /  0mm 0 W/m2
00:08 32.8 °F /  0.4 °C 17.5 °F /  -8.1 °C 29.78in /  1008.4hPa South 3.0mph /  4.8km/h 4.0mph /  6.4km/h 53% 0.00in /  0mm 0 W/m2
00:14 32.5 °F /  0.3 °C 17.7 °F /  -7.9 °C 29.78in /  1008.4hPa South 2.0mph /  3.2km/h 3.0mph /  4.8km/h 54% 0.00in /  0mm 0 W/m2
00:20 32.2 °F /  0.1 °C 17.4 °F /  -8.1 °C 29.78in /  1008.4hPa South 2.0mph /  3.2km/h 2.0mph /  3.2km/h 54% 0.00in /  0mm 0 W/m2
00:26 32.1 °F /  0.1 °C 17.7 °F /  -7.9 °C 29.79in /  1008.7hPa South 2.0mph /  3.2km/h 3.0mph /  4.8km/h 55% 0.00in /  0mm 0 W/m2
00:32 31.9 °F /  -0.1 °C 18.0 °F /  -7.8 °C 29.79in /  1008.7hPa South 2.0mph /  3.2km/h 2.0mph /  3.2km/h 56% 0.00in /  0mm 0 W/m2
00:38 31.9 °F /  -0.1 °C 18.4 °F /  -7.6 °C 29.79in /  1008.7hPa South 1.0mph /  1.6km/h 2.0mph /  3.2km/h 57% 0.00in /  0mm 0 W/m2
00:44 31.8 °F /  -0.1 °C 18.3 °F /  -7.6 °C 29.79in /  1008.7hPa SE 1.0mph /  1.6km/h 1.0mph /  1.6km/h 57% 0.00in /  0mm 0 W/m2
00:50 32.1 °F /  0.1 °C 18.2 °F /  -7.7 °C 29.79in /  1008.7hPa SSE 2.0mph /  3.2km/h 2.0mph /  3.2km/h 56% 0.00in /  0mm 0 W/m2
00:56 32.3 °F /  0.2 °C 18.3 °F /  -7.6 °C 29.79in /  1008.7hPa South 2.0mph /  3.2km/h 2.0mph /  3.2km/h 56% 0.00in /  0mm 0 W/m2
01:02 32.9 °F /  0.5 °C 18.1 °F /  -7.7 °C 29.79in /  1008.7hPa South 3.0mph /  4.8km/h 4.0mph /  6.4km/h 54% 0.00in /  0mm 0 W/m2
01:08 33.1 °F /  0.6 °C 18.7 °F /  -7.4 °C 29.79in /  1008.7hPa SSE 3.0mph /  4.8km/h 4.0mph /  6.4km/h 55% 0.00in /  0mm 0 W/m2
01:14 33.1 °F /  0.6 °C 18.2 °F /  -7.7 °C 29.79in /  1008.7hPa SSW 2.0mph /  3.2km/h 4.0mph /  6.4km/h 54% 0.00in /  0mm 0 W/m2
01:20 33.1 °F /  0.6 °C 18.7 °F /  -7.4 °C 29.79in /  1008.7hPa South 3.0mph /  4.8km/h 3.0mph /  4.8km/h 55% 0.00in /  0mm 0 W/m2
01:26 33.0 °F /  0.6 °C 18.1 °F /  -7.7 °C 29.78in /  1008.4hPa SSE 2.0mph /  3.2km/h 3.0mph /  4.8km/h 54% 0.00in /  0mm 0 W/m2
01:32 32.9 °F /  0.5 °C 18.1 °F /  -7.7 °C 29.78in /  1008.4hPa SW 3.0mph /  4.8km/h 4.0mph /  6.4km/h 54% 0.00in /  0mm 0 W/m2
01:38 33.2 °F /  0.7 °C 17.9 °F /  -7.8 °C 29.78in /  1008.4hPa SSW 3.0mph /  4.8km/h 4.0mph /  6.4km/h 53% 0.00in /  0mm 0 W/m2
01:44 33.2 °F /  0.7 °C 17.9 °F /  -7.8 °C 29.78in /  1008.4hPa SSW 3.0mph /  4.8km/h 5.0mph /  8km/h 53% 0.00in /  0mm 0 W/m2
01:50 33.2 °F /  0.7 °C 18.3 °F /  -7.6 °C 29.78in /  1008.4hPa South 3.0mph /  4.8km/h 3.0mph /  4.8km/h 54% 0.00in /  0mm 0 W/m2
01:56 33.1 °F /  0.6 °C 18.2 °F /  -7.7 °C 29.78in /  1008.4hPa SSE 2.0mph /  3.2km/h 4.0mph /  6.4km/h 54% 0.00in /  0mm 0 W/m2
02:02 32.6 °F /  0.3 °C 18.2 °F /  -7.7 °C 29.78in /  1008.4hPa SE 2.0mph /  3.2km/h 5.0mph /  8km/h 55% 0.00in /  0mm 0 W/m2
02:08 32.3 °F /  0.2 °C 17.9 °F /  -7.8 °C 29.78in /  1008.4hPa SSE 2.0mph /  3.2km/h 5.0mph /  8km/h 55% 0.00in /  0mm 0 W/m2
02:14 32.3 °F /  0.2 °C 17.9 °F /  -7.8 °C 29.78in /  1008.4hPa SSE 3.0mph /  4.8km/h 4.0mph /  6.4km/h 55% 0.00in /  0mm 0 W/m2
02:20 32.3 °F /  0.2 °C 17.9 °F /  -7.8 °C 29.78in /  1008.4hPa SSE 3.0mph /  4.8km/h 4.0mph /  6.4km/h 55% 0.00in /  0mm 0 W/m2
02:28 32.3 °F /  0.2 °C 17.9 °F /  -7.8 °C 29.79in /  1008.7hPa SSE 4.0mph /  6.4km/h 6.0mph /  9.7km/h 55% 0.00in /  0mm 0 W/m2
02:34 32.5 °F /  0.3 °C 17.7 °F /  -7.9 °C 29.78in /  1008.4hPa SSE 4.0mph /  6.4km/h 5.0mph /  8km/h 54% 0.00in /  0mm 0 W/m2
02:40 32.6 °F /  0.3 °C 17.8 °F /  -7.9 °C 29.79in /  1008.7hPa South 4.0mph /  6.4km/h 4.0mph /  6.4km/h 54% 0.00in /  0mm 0 W/m2
02:46 32.6 °F /  0.3 °C 18.2 °F /  -7.7 °C 29.78in /  1008.4hPa South 3.0mph /  4.8km/h 5.0mph /  8km/h 55% 0.00in /  0mm 0 W/m2
02:52 32.7 °F /  0.4 °C 18.3 °F /  -7.6 °C 29.78in /  1008.4hPa SSE 3.0mph /  4.8km/h 4.0mph /  6.4km/h 55% 0.00in /  0mm 0 W/m2
02:58 32.6 °F /  0.3 °C 18.2 °F /  -7.7 °C 29.78in /  1008.4hPa South 3.0mph /  4.8km/h 4.0mph /  6.4km/h 55% 0.00in /  0mm 0 W/m2
03:04 32.6 °F /  0.3 °C 18.2 °F /  -7.7 °C 29.78in /  1008.4hPa South 3.0mph /  4.8km/h 5.0mph /  8km/h 55% 0.00in /  0mm 0 W/m2
03:10 32.3 °F /  0.2 °C 18.3 °F /  -7.6 °C 29.78in /  1008.4hPa South 3.0mph /  4.8km/h 3.0mph /  4.8km/h 56% 0.00in /  0mm 0 W/m2
03:16 32.3 °F /  0.2 °C 18.3 °F /  -7.6 °C 29.78in /  1008.4hPa SSE 3.0mph /  4.8km/h 4.0mph /  6.4km/h 56% 0.00in /  0mm 0 W/m2
03:22 32.3 °F /  0.2 °C 18.3 °F /  -7.6 °C 29.78in /  1008.4hPa SSE 3.0mph /  4.8km/h 3.0mph /  4.8km/h 56% 0.00in /  0mm 0 W/m2
03:28 32.3 °F /  0.2 °C 18.3 °F /  -7.6 °C 29.78in /  1008.4hPa SSW 3.0mph /  4.8km/h 5.0mph /  8km/h 56% 0.00in /  0mm 0 W/m2
03:34 32.3 °F /  0.2 °C 18.3 °F /  -7.6 °C 29.78in /  1008.4hPa SE 3.0mph /  4.8km/h 4.0mph /  6.4km/h 56% 0.00in /  0mm 0 W/m2
03:40 32.4 °F /  0.2 °C 18.0 °F /  -7.8 °C 29.78in /  1008.4hPa SSE 4.0mph /  6.4km/h 5.0mph /  8km/h 55% 0.00in /  0mm 0 W/m2
03:52 32.3 °F /  0.2 °C 18.3 °F /  -7.6 °C 29.78in /  1008.4hPa East 4.0mph /  6.4km/h 4.0mph /  6.4km/h 56% 0.00in /  0mm 0 W/m2
03:58 32.4 °F /  0.2 °C 18.0 °F /  -7.8 °C 29.78in /  1008.4hPa SSE 4.0mph /  6.4km/h 6.0mph /  9.7km/h 55% 0.00in /  0mm 0 W/m2
04:04 32.4 °F /  0.2 °C 18.0 °F /  -7.8 °C 29.78in /  1008.4hPa South 5.0mph /  8km/h 8.0mph /  12.9km/h 55% 0.00in /  0mm 0 W/m2
04:10 32.4 °F /  0.2 °C 18.0 °F /  -7.8 °C 29.77in /  1008hPa SSE 5.0mph /  8km/h 5.0mph /  8km/h 55% 0.00in /  0mm 0 W/m2
04:16 32.5 °F /  0.3 °C 18.1 °F /  -7.7 °C 29.77in /  1008hPa SSE 4.0mph /  6.4km/h 5.0mph /  8km/h 55% 0.00in /  0mm 0 W/m2
04:22 32.5 °F /  0.3 °C 18.1 °F /  -7.7 °C 29.77in /  1008hPa SSW 5.0mph /  8km/h 5.0mph /  8km/h 55% 0.00in /  0mm 0 W/m2
04:28 32.7 °F /  0.4 °C 18.3 °F /  -7.6 °C 29.77in /  1008hPa South 5.0mph /  8km/h 7.0mph /  11.3km/h 55% 0.00in /  0mm 0 W/m2
04:34 32.6 °F /  0.3 °C 18.6 °F /  -7.4 °C 29.77in /  1008hPa South 4.0mph /  6.4km/h 7.0mph /  11.3km/h 56% 0.00in /  0mm 0 W/m2
04:40 32.8 °F /  0.4 °C 18.4 °F /  -7.6 °C 29.78in /  1008.4hPa South 5.0mph /  8km/h 5.0mph /  8km/h 55% 0.00in /  0mm 0 W/m2
04:46 32.8 °F /  0.4 °C 18.8 °F /  -7.3 °C 29.78in /  1008.4hPa SSW 5.0mph /  8km/h 6.0mph /  9.7km/h 56% 0.00in /  0mm 0 W/m2
04:52 32.8 °F /  0.4 °C 18.4 °F /  -7.6 °C 29.78in /  1008.4hPa South 5.0mph /  8km/h 7.0mph /  11.3km/h 55% 0.00in /  0mm 0 W/m2
04:58 32.8 °F /  0.4 °C 18.4 °F /  -7.6 °C 29.78in /  1008.4hPa SSE 5.0mph /  8km/h 7.0mph /  11.3km/h 55% 0.00in /  0mm 0 W/m2
05:04 32.8 °F /  0.4 °C 18.8 °F /  -7.3 °C 29.78in /  1008.4hPa South 5.0mph /  8km/h 5.0mph /  8km/h 56% 0.00in /  0mm 0 W/m2
05:10 32.8 °F /  0.4 °C 18.8 °F /  -7.3 °C 29.78in /  1008.4hPa SE 4.0mph /  6.4km/h 6.0mph /  9.7km/h 56% 0.00in /  0mm 0 W/m2
05:16 32.8 °F /  0.4 °C 18.8 °F /  -7.3 °C 29.77in /  1008hPa South 4.0mph /  6.4km/h 6.0mph /  9.7km/h 56% 0.00in /  0mm 0 W/m2
05:24 33.0 °F /  0.6 °C 19.0 °F /  -7.2 °C 29.77in /  1008hPa SSW 3.0mph /  4.8km/h 4.0mph /  6.4km/h 56% 0.00in /  0mm 0 W/m2
05:30 33.0 °F /  0.6 °C 19.0 °F /  -7.2 °C 29.77in /  1008hPa SSE 3.0mph /  4.8km/h 5.0mph /  8km/h 56% 0.00in /  0mm 0 W/m2
05:36 33.1 °F /  0.6 °C 19.1 °F /  -7.2 °C 29.77in /  1008hPa South 3.0mph /  4.8km/h 5.0mph /  8km/h 56% 0.00in /  0mm 0 W/m2
05:42 33.2 °F /  0.7 °C 19.2 °F /  -7.1 °C 29.77in /  1008hPa South 2.0mph /  3.2km/h 4.0mph /  6.4km/h 56% 0.00in /  0mm 0 W/m2
05:48 33.4 °F /  0.8 °C 19.4 °F /  -7 °C 29.77in /  1008hPa SSE 3.0mph /  4.8km/h 4.0mph /  6.4km/h 56% 0.00in /  0mm 0 W/m2
05:54 33.4 °F /  0.8 °C 19.4 °F /  -7 °C 29.77in /  1008hPa SSW 3.0mph /  4.8km/h 5.0mph /  8km/h 56% 0.00in /  0mm 0 W/m2
06:00 33.5 °F /  0.8 °C 19.5 °F /  -6.9 °C 29.77in /  1008hPa South 3.0mph /  4.8km/h 3.0mph /  4.8km/h 56% 0.00in /  0mm 0 W/m2
06:06 33.6 °F /  0.9 °C 20.0 °F /  -6.7 °C 29.78in /  1008.4hPa SSW 3.0mph /  4.8km/h 5.0mph /  8km/h 57% 0.00in /  0mm 0 W/m2
06:12 33.7 °F /  0.9 °C 20.1 °F /  -6.6 °C 29.78in /  1008.4hPa SSW 3.0mph /  4.8km/h 4.0mph /  6.4km/h 57% 0.00in /  0mm 0 W/m2
06:18 33.9 °F /  1.1 °C 20.3 °F /  -6.5 °C 29.77in /  1008hPa SSE 3.0mph /  4.8km/h 6.0mph /  9.7km/h 57% 0.00in /  0mm 0 W/m2
06:24 34.0 °F /  1.1 °C 20.8 °F /  -6.2 °C 29.78in /  1008.4hPa SSW 3.0mph /  4.8km/h 4.0mph /  6.4km/h 58% 0.00in /  0mm 0 W/m2
06:30 34.2 °F /  1.2 °C 20.9 °F /  -6.2 °C 29.77in /  1008hPa SW 4.0mph /  6.4km/h 4.0mph /  6.4km/h 58% 0.00in /  0mm 0 W/m2
06:36 34.3 °F /  1.3 °C 21.0 °F /  -6.1 °C 29.77in /  1008hPa SSW 4.0mph /  6.4km/h 4.0mph /  6.4km/h 58% 0.00in /  0mm 0 W/m2
06:42 34.4 °F /  1.3 °C 20.7 °F /  -6.3 °C 29.76in /  1007.7hPa SSE 4.0mph /  6.4km/h 9.0mph /  14.5km/h 57% 0.00in /  0mm 0 W/m2
06:48 34.4 °F /  1.3 °C 21.1 °F /  -6.1 °C 29.77in /  1008hPa SSW 4.0mph /  6.4km/h 9.0mph /  14.5km/h 58% 0.00in /  0mm 0 W/m2
06:54 34.4 °F /  1.3 °C 21.1 °F /  -6.1 °C 29.77in /  1008hPa SSW 4.0mph /  6.4km/h 5.0mph /  8km/h 58% 0.00in /  0mm 0 W/m2
07:00 34.5 °F /  1.4 °C 21.2 °F /  -6 °C 29.78in /  1008.4hPa South 4.0mph /  6.4km/h 5.0mph /  8km/h 58% 0.00in /  0mm 0 W/m2
07:06 34.5 °F /  1.4 °C 21.2 °F /  -6 °C 29.78in /  1008.4hPa SSW 4.0mph /  6.4km/h 5.0mph /  8km/h 58% 0.00in /  0mm 0 W/m2
07:12 34.6 °F /  1.4 °C 21.3 °F /  -5.9 °C 29.78in /  1008.4hPa South 4.0mph /  6.4km/h 6.0mph /  9.7km/h 58% 0.00in /  0mm 0 W/m2
07:18 34.5 °F /  1.4 °C 21.6 °F /  -5.8 °C 29.77in /  1008hPa SSE 3.0mph /  4.8km/h 9.0mph /  14.5km/h 59% 0.00in /  0mm 0 W/m2
07:24 34.4 °F /  1.3 °C 21.5 °F /  -5.8 °C 29.77in /  1008hPa South 3.0mph /  4.8km/h 5.0mph /  8km/h 59% 0.00in /  0mm 0 W/m2
07:30 34.3 °F /  1.3 °C 21.8 °F /  -5.7 °C 29.76in /  1007.7hPa South 3.0mph /  4.8km/h 4.0mph /  6.4km/h 60% 0.00in /  0mm 0 W/m2
07:36 34.3 °F /  1.3 °C 21.8 °F /  -5.7 °C 29.76in /  1007.7hPa South 3.0mph /  4.8km/h 6.0mph /  9.7km/h 60% 0.00in /  0mm 0 W/m2
07:42 34.2 °F /  1.2 °C 22.1 °F /  -5.5 °C 29.77in /  1008hPa SSW 3.0mph /  4.8km/h 3.0mph /  4.8km/h 61% 0.00in /  0mm 7 W/m2
07:48 34.2 °F /  1.2 °C 22.1 °F /  -5.5 °C 29.76in /  1007.7hPa South 2.0mph /  3.2km/h 7.0mph /  11.3km/h 61% 0.00in /  0mm 14 W/m2
07:54 34.3 °F /  1.3 °C 22.2 °F /  -5.4 °C 29.76in /  1007.7hPa SSE 3.0mph /  4.8km/h 3.0mph /  4.8km/h 61% 0.00in /  0mm 21 W/m2
08:00 34.4 °F /  1.3 °C 22.3 °F /  -5.4 °C 29.76in /  1007.7hPa SSW 3.0mph /  4.8km/h 3.0mph /  4.8km/h 61% 0.00in /  0mm 23 W/m2
08:06 34.4 °F /  1.3 °C 22.3 °F /  -5.4 °C 29.77in /  1008hPa SSE 3.0mph /  4.8km/h 3.0mph /  4.8km/h 61% 0.00in /  0mm 26 W/m2
08:12 34.3 °F /  1.3 °C 22.6 °F /  -5.2 °C 29.76in /  1007.7hPa SSE 2.0mph /  3.2km/h 2.0mph /  3.2km/h 62% 0.00in /  0mm 25 W/m2
08:18 34.4 °F /  1.3 °C 22.7 °F /  -5.2 °C 29.76in /  1007.7hPa South 2.0mph /  3.2km/h 3.0mph /  4.8km/h 62% 0.00in /  0mm 37 W/m2
08:24 34.6 °F /  1.4 °C 22.9 °F /  -5.1 °C 29.76in /  1007.7hPa South 2.0mph /  3.2km/h 3.0mph /  4.8km/h 62% 0.00in /  0mm 42 W/m2
08:30 34.9 °F /  1.6 °C 22.8 °F /  -5.1 °C 29.76in /  1007.7hPa South 3.0mph /  4.8km/h 4.0mph /  6.4km/h 61% 0.00in /  0mm 56 W/m2
08:36 35.2 °F /  1.8 °C 23.5 °F /  -4.7 °C 29.76in /  1007.7hPa South 3.0mph /  4.8km/h 5.0mph /  8km/h 62% 0.00in /  0mm 69 W/m2
08:42 35.4 °F /  1.9 °C 23.3 °F /  -4.8 °C 29.76in /  1007.7hPa South 4.0mph /  6.4km/h 4.0mph /  6.4km/h 61% 0.00in /  0mm 84 W/m2
08:48 35.5 °F /  1.9 °C 23.8 °F /  -4.6 °C 29.76in /  1007.7hPa SSE 3.0mph /  4.8km/h 4.0mph /  6.4km/h 62% 0.00in /  0mm 102 W/m2
08:54 35.6 °F /  2 °C 23.9 °F /  -4.5 °C 29.76in /  1007.7hPa SSE 3.0mph /  4.8km/h 5.0mph /  8km/h 62% 0.00in /  0mm 88 W/m2
09:00 35.8 °F /  2.1 °C 24.0 °F /  -4.4 °C 29.76in /  1007.7hPa South 3.0mph /  4.8km/h 4.0mph /  6.4km/h 62% 0.00in /  0mm 86 W/m2
09:06 35.9 °F /  2.2 °C 24.1 °F /  -4.4 °C 29.76in /  1007.7hPa South 3.0mph /  4.8km/h 4.0mph /  6.4km/h 62% 0.00in /  0mm 97 W/m2
09:12 36.1 °F /  2.3 °C 24.3 °F /  -4.3 °C 29.76in /  1007.7hPa South 2.0mph /  3.2km/h 2.0mph /  3.2km/h 62% 0.00in /  0mm 105 W/m2
09:18 36.4 °F /  2.4 °C 24.6 °F /  -4.1 °C 29.76in /  1007.7hPa South 3.0mph /  4.8km/h 3.0mph /  4.8km/h 62% 0.00in /  0mm 127 W/m2
09:24 36.6 °F /  2.6 °C 24.8 °F /  -4 °C 29.76in /  1007.7hPa South 3.0mph /  4.8km/h 6.0mph /  9.7km/h 62% 0.00in /  0mm 111 W/m2
09:30 36.8 °F /  2.7 °C 25.4 °F /  -3.7 °C 29.77in /  1008hPa South 3.0mph /  4.8km/h 3.0mph /  4.8km/h 63% 0.00in /  0mm 109 W/m2
09:36 37.1 °F /  2.8 °C 25.3 °F /  -3.7 °C 29.78in /  1008.4hPa SW 4.0mph /  6.4km/h 6.0mph /  9.7km/h 62% 0.00in /  0mm 134 W/m2
09:42 37.3 °F /  2.9 °C 25.8 °F /  -3.4 °C 29.77in /  1008hPa SSW 4.0mph /  6.4km/h 6.0mph /  9.7km/h 63% 0.00in /  0mm 179 W/m2
09:48 37.6 °F /  3.1 °C 26.1 °F /  -3.3 °C 29.77in /  1008hPa SSE 4.0mph /  6.4km/h 6.0mph /  9.7km/h 63% 0.00in /  0mm 172 W/m2
09:54 37.9 °F /  3.3 °C 26.4 °F /  -3.1 °C 29.76in /  1007.7hPa SSW 4.0mph /  6.4km/h 5.0mph /  8km/h 63% 0.00in /  0mm 162 W/m2
10:00 38.0 °F /  3.3 °C 26.5 °F /  -3.1 °C 29.76in /  1007.7hPa SSW 4.0mph /  6.4km/h 5.0mph /  8km/h 63% 0.00in /  0mm 146 W/m2
10:06 38.2 °F /  3.4 °C 26.7 °F /  -2.9 °C 29.76in /  1007.7hPa SE 3.0mph /  4.8km/h 5.0mph /  8km/h 63% 0.00in /  0mm 149 W/m2
10:12 38.4 °F /  3.6 °C 27.3 °F /  -2.6 °C 29.76in /  1007.7hPa South 3.0mph /  4.8km/h 7.0mph /  11.3km/h 64% 0.05in /  1.27mm 172 W/m2
10:18 38.6 °F /  3.7 °C 27.5 °F /  -2.5 °C 29.76in /  1007.7hPa SE 4.0mph /  6.4km/h 7.0mph /  11.3km/h 64% 0.05in /  1.27mm 174 W/m2
10:24 38.8 °F /  3.8 °C 28.0 °F /  -2.2 °C 29.76in /  1007.7hPa SSW 4.0mph /  6.4km/h 6.0mph /  9.7km/h 65% 0.00in /  0mm 192 W/m2
10:30 39.1 °F /  3.9 °C 28.3 °F /  -2.1 °C 29.76in /  1007.7hPa SSW 4.0mph /  6.4km/h 9.0mph /  14.5km/h 65% 0.00in /  0mm 172 W/m2
10:36 39.3 °F /  4.1 °C 28.5 °F /  -1.9 °C 29.76in /  1007.7hPa South 5.0mph /  8km/h 9.0mph /  14.5km/h 65% 0.00in /  0mm 193 W/m2
10:42 39.4 °F /  4.1 °C 28.6 °F /  -1.9 °C 29.76in /  1007.7hPa South 5.0mph /  8km/h 5.0mph /  8km/h 65% 0.04in /  1.02mm 153 W/m2
10:48 39.7 °F /  4.3 °C 29.3 °F /  -1.5 °C 29.76in /  1007.7hPa South 4.0mph /  6.4km/h 5.0mph /  8km/h 66% 0.04in /  1.02mm 346 W/m2
10:54 40.9 °F /  4.9 °C 29.7 °F /  -1.3 °C 29.75in /  1007.3hPa South 3.0mph /  4.8km/h 6.0mph /  9.7km/h 64% 0.04in /  1.02mm 346 W/m2
11:00 40.8 °F /  4.9 °C 29.6 °F /  -1.3 °C 29.75in /  1007.3hPa SSE 5.0mph /  8km/h 6.0mph /  9.7km/h 64% 0.00in /  0mm 199 W/m2
11:06 41.0 °F /  5 °C 30.1 °F /  -1.1 °C 29.75in /  1007.3hPa SW 5.0mph /  8km/h 10.0mph /  16.1km/h 65% 0.00in /  0mm 608 W/m2
11:12 41.7 °F /  5.4 °C 30.4 °F /  -0.9 °C 29.75in /  1007.3hPa South 5.0mph /  8km/h 6.0mph /  9.7km/h 64% 0.06in /  1.52mm 513 W/m2
11:18 42.1 °F /  5.6 °C 30.4 °F /  -0.9 °C 29.75in /  1007.3hPa SE 5.0mph /  8km/h 6.0mph /  9.7km/h 63% 0.06in /  1.52mm 517 W/m2
11:24 42.3 °F /  5.7 °C 30.6 °F /  -0.8 °C 29.74in /  1007hPa WSW 5.0mph /  8km/h 7.0mph /  11.3km/h 63% 0.04in /  1.02mm 512 W/m2
11:30 42.5 °F /  5.8 °C 30.8 °F /  -0.7 °C 29.73in /  1006.7hPa South 5.0mph /  8km/h 6.0mph /  9.7km/h 63% 0.00in /  0mm 517 W/m2
11:36 42.9 °F /  6.1 °C 30.8 °F /  -0.7 °C 29.73in /  1006.7hPa SSE 4.0mph /  6.4km/h 7.0mph /  11.3km/h 62% 0.00in /  0mm 512 W/m2
11:42 43.4 °F /  6.3 °C 30.8 °F /  -0.7 °C 29.73in /  1006.7hPa SSW 4.0mph /  6.4km/h 5.0mph /  8km/h 61% 0.00in /  0mm 519 W/m2
11:48 43.1 °F /  6.2 °C 31.4 °F /  -0.3 °C 29.73in /  1006.7hPa SSW 4.0mph /  6.4km/h 5.0mph /  8km/h 63% 0.00in /  0mm 524 W/m2
11:54 43.6 °F /  6.4 °C 31.4 °F /  -0.3 °C 29.73in /  1006.7hPa South 4.0mph /  6.4km/h 7.0mph /  11.3km/h 62% 0.00in /  0mm 531 W/m2
12:00 43.4 °F /  6.3 °C 31.2 °F /  -0.4 °C 29.73in /  1006.7hPa SE 6.0mph /  9.7km/h 7.0mph /  11.3km/h 62% 0.00in /  0mm 547 W/m2
12:06 43.9 °F /  6.6 °C 31.7 °F /  -0.2 °C 29.73in /  1006.7hPa SW 6.0mph /  9.7km/h 8.0mph /  12.9km/h 62% 0.00in /  0mm 529 W/m2
12:12 44.0 °F /  6.7 °C 31.8 °F /  -0.1 °C 29.73in /  1006.7hPa SW 6.0mph /  9.7km/h 7.0mph /  11.3km/h 62% 0.00in /  0mm 615 W/m2
12:18 44.7 °F /  7.1 °C 32.1 °F /  0.1 °C 29.73in /  1006.7hPa SW 5.0mph /  8km/h 7.0mph /  11.3km/h 61% 0.00in /  0mm 406 W/m2
12:24 44.4 °F /  6.9 °C 31.8 °F /  -0.1 °C 29.73in /  1006.7hPa SSW 4.0mph /  6.4km/h 7.0mph /  11.3km/h 61% 0.00in /  0mm 234 W/m2
12:30 44.1 °F /  6.7 °C 31.9 °F /  -0.1 °C 29.71in /  1006hPa SW 5.0mph /  8km/h 5.0mph /  8km/h 62% 0.00in /  0mm 260 W/m2
12:36 44.0 °F /  6.7 °C 31.8 °F /  -0.1 °C 29.71in /  1006hPa SW 5.0mph /  8km/h 6.0mph /  9.7km/h 62% 0.00in /  0mm 325 W/m2
12:42 44.1 °F /  6.7 °C 31.9 °F /  -0.1 °C 29.70in /  1005.6hPa SSW 5.0mph /  8km/h 6.0mph /  9.7km/h 62% 0.00in /  0mm 306 W/m2
12:48 44.3 °F /  6.8 °C 32.1 °F /  0.1 °C 29.71in /  1006hPa SW 6.0mph /  9.7km/h 10.0mph /  16.1km/h 62% 0.00in /  0mm 285 W/m2
12:54 44.5 °F /  6.9 °C 31.9 °F /  -0.1 °C 29.70in /  1005.6hPa SSW 6.0mph /  9.7km/h 9.0mph /  14.5km/h 61% 0.00in /  0mm 434 W/m2
13:00 45.1 °F /  7.3 °C 32.0 °F /  0 °C 29.70in /  1005.6hPa South 6.0mph /  9.7km/h 6.0mph /  9.7km/h 60% 0.00in /  0mm 638 W/m2
13:06 45.7 °F /  7.6 °C 32.2 °F /  0.1 °C 29.70in /  1005.6hPa SW 5.0mph /  8km/h 6.0mph /  9.7km/h 59% 0.00in /  0mm 485 W/m2
13:12 45.2 °F /  7.3 °C 32.1 °F /  0.1 °C 29.70in /  1005.6hPa SW 6.0mph /  9.7km/h 10.0mph /  16.1km/h 60% 0.00in /  0mm 394 W/m2
13:18 45.3 °F /  7.4 °C 32.2 °F /  0.1 °C 29.69in /  1005.3hPa SW 6.0mph /  9.7km/h 10.0mph /  16.1km/h 60% 0.00in /  0mm 429 W/m2
13:24 45.5 °F /  7.5 °C 32.0 °F /  0 °C 29.68in /  1005hPa SW 6.0mph /  9.7km/h 8.0mph /  12.9km/h 59% 0.00in /  0mm 316 W/m2
13:30 45.2 °F /  7.3 °C 31.7 °F /  -0.2 °C 29.68in /  1005hPa SSW 7.0mph /  11.3km/h 7.0mph /  11.3km/h 59% 0.00in /  0mm 209 W/m2
13:36 45.4 °F /  7.4 °C 32.3 °F /  0.2 °C 29.68in /  1005hPa SW 6.0mph /  9.7km/h 7.0mph /  11.3km/h 60% 0.00in /  0mm 577 W/m2
13:42 45.8 °F /  7.7 °C 31.9 °F /  -0.1 °C 29.68in /  1005hPa SSW 6.0mph /  9.7km/h 11.0mph /  17.7km/h 58% 0.00in /  0mm 248 W/m2
13:48 45.8 °F /  7.7 °C 31.9 °F /  -0.1 °C 29.68in /  1005hPa South 7.0mph /  11.3km/h 12.0mph /  19.3km/h 58% 0.00in /  0mm 362 W/m2
13:54 45.7 °F /  7.6 °C 31.8 °F /  -0.1 °C 29.68in /  1005hPa SW 8.0mph /  12.9km/h 8.0mph /  12.9km/h 58% 0.00in /  0mm 223 W/m2
14:00 45.7 °F /  7.6 °C 32.2 °F /  0.1 °C 29.68in /  1005hPa SW 6.0mph /  9.7km/h 11.0mph /  17.7km/h 59% 0.00in /  0mm 353 W/m2
14:06 45.9 °F /  7.7 °C 31.9 °F /  -0.1 °C 29.68in /  1005hPa SSE 5.0mph /  8km/h 11.0mph /  17.7km/h 58% 0.00in /  0mm 309 W/m2
14:12 46.5 °F /  8.1 °C 32.5 °F /  0.3 °C 29.68in /  1005hPa SW 4.0mph /  6.4km/h 5.0mph /  8km/h 58% 0.00in /  0mm 452 W/m2
14:18 46.6 °F /  8.1 °C 31.7 °F /  -0.2 °C 29.68in /  1005hPa SSW 6.0mph /  9.7km/h 6.0mph /  9.7km/h 56% 0.00in /  0mm 490 W/m2
14:24 46.6 °F /  8.1 °C 31.7 °F /  -0.2 °C 29.68in /  1005hPa SSW 7.0mph /  11.3km/h 9.0mph /  14.5km/h 56% 0.00in /  0mm 315 W/m2
14:30 46.6 °F /  8.1 °C 31.7 °F /  -0.2 °C 29.68in /  1005hPa SW 7.0mph /  11.3km/h 11.0mph /  17.7km/h 56% 0.00in /  0mm 381 W/m2
14:36 46.3 °F /  7.9 °C 32.3 °F /  0.2 °C 29.68in /  1005hPa West 6.0mph /  9.7km/h 11.0mph /  17.7km/h 58% 0.00in /  0mm 381 W/m2
14:42 46.4 °F /  8 °C 32.0 °F /  0 °C 29.68in /  1005hPa SSW 6.0mph /  9.7km/h 7.0mph /  11.3km/h 57% 0.00in /  0mm 206 W/m2
14:48 46.3 °F /  7.9 °C 32.3 °F /  0.2 °C 29.68in /  1005hPa SSW 4.0mph /  6.4km/h 8.0mph /  12.9km/h 58% 0.00in /  0mm 204 W/m2
14:54 46.3 °F /  7.9 °C 32.7 °F /  0.4 °C 29.69in /  1005.3hPa SW 3.0mph /  4.8km/h 6.0mph /  9.7km/h 59% 0.00in /  0mm 190 W/m2
15:00 46.3 °F /  7.9 °C 32.3 °F /  0.2 °C 29.69in /  1005.3hPa SSW 3.0mph /  4.8km/h 7.0mph /  11.3km/h 58% 0.00in /  0mm 199 W/m2
15:06 46.2 °F /  7.9 °C 32.2 °F /  0.1 °C 29.68in /  1005hPa SW 5.0mph /  8km/h 8.0mph /  12.9km/h 58% 0.00in /  0mm 176 W/m2
15:12 46.0 °F /  7.8 °C 32.0 °F /  0 °C 29.69in /  1005.3hPa SSE 7.0mph /  11.3km/h 7.0mph /  11.3km/h 58% 0.00in /  0mm 156 W/m2
15:18 46.0 °F /  7.8 °C 32.0 °F /  0 °C 29.69in /  1005.3hPa South 6.0mph /  9.7km/h 7.0mph /  11.3km/h 58% 0.00in /  0mm 229 W/m2
15:24 46.0 °F /  7.8 °C 32.0 °F /  0 °C 29.69in /  1005.3hPa SSW 5.0mph /  8km/h 6.0mph /  9.7km/h 58% 0.00in /  0mm 204 W/m2
15:30 46.1 °F /  7.8 °C 32.1 °F /  0.1 °C 29.69in /  1005.3hPa SSW 5.0mph /  8km/h 7.0mph /  11.3km/h 58% 0.00in /  0mm 128 W/m2
15:36 45.9 °F /  7.7 °C 31.9 °F /  -0.1 °C 29.69in /  1005.3hPa SSW 4.0mph /  6.4km/h 7.0mph /  11.3km/h 58% 0.00in /  0mm 109 W/m2
15:42 45.8 °F /  7.7 °C 31.9 °F /  -0.1 °C 29.69in /  1005.3hPa SW 4.0mph /  6.4km/h 5.0mph /  8km/h 58% 0.00in /  0mm 137 W/m2
15:48 45.8 °F /  7.7 °C 31.9 °F /  -0.1 °C 29.70in /  1005.6hPa SSW 4.0mph /  6.4km/h 5.0mph /  8km/h 58% 0.00in /  0mm 100 W/m2
15:54 45.8 °F /  7.7 °C 31.9 °F /  -0.1 °C 29.70in /  1005.6hPa SSE 4.0mph /  6.4km/h 7.0mph /  11.3km/h 58% 0.00in /  0mm 67 W/m2
16:00 45.6 °F /  7.6 °C 32.1 °F /  0.1 °C 29.70in /  1005.6hPa South 5.0mph /  8km/h 5.0mph /  8km/h 59% 0.00in /  0mm 65 W/m2
16:06 45.5 °F /  7.5 °C 32.0 °F /  0 °C 29.69in /  1005.3hPa South 5.0mph /  8km/h 7.0mph /  11.3km/h 59% 0.00in /  0mm 70 W/m2
16:12 45.4 °F /  7.4 °C 31.9 °F /  -0.1 °C 29.69in /  1005.3hPa SW 5.0mph /  8km/h 7.0mph /  11.3km/h 59% 0.00in /  0mm 65 W/m2
16:18 45.3 °F /  7.4 °C 31.8 °F /  -0.1 °C 29.69in /  1005.3hPa SSW 4.0mph /  6.4km/h 7.0mph /  11.3km/h 59% 0.00in /  0mm 39 W/m2
16:24 45.1 °F /  7.3 °C 32.0 °F /  0 °C 29.70in /  1005.6hPa South 4.0mph /  6.4km/h 4.0mph /  6.4km/h 60% 0.00in /  0mm 32 W/m2
16:30 45.0 °F /  7.2 °C 31.9 °F /  -0.1 °C 29.70in /  1005.6hPa SSE 5.0mph /  8km/h 6.0mph /  9.7km/h 60% 0.00in /  0mm 18 W/m2
16:36 44.9 °F /  7.2 °C 31.8 °F /  -0.1 °C 29.70in /  1005.6hPa SSW 6.0mph /  9.7km/h 7.0mph /  11.3km/h 60% 0.00in /  0mm 19 W/m2
16:42 44.7 °F /  7.1 °C 32.1 °F /  0.1 °C 29.70in /  1005.6hPa SW 5.0mph /  8km/h 6.0mph /  9.7km/h 61% 0.00in /  0mm 12 W/m2
16:48 44.6 °F /  7 °C 32.0 °F /  0 °C 29.70in /  1005.6hPa SSW 5.0mph /  8km/h 7.0mph /  11.3km/h 61% 0.00in /  0mm 11 W/m2
16:54 44.5 °F /  6.9 °C 32.3 °F /  0.2 °C 29.70in /  1005.6hPa SW 6.0mph /  9.7km/h 8.0mph /  12.9km/h 62% 0.00in /  0mm 7 W/m2
17:00 44.4 °F /  6.9 °C 32.2 °F /  0.1 °C 29.70in /  1005.6hPa South 5.0mph /  8km/h 5.0mph /  8km/h 62% 0.00in /  0mm 5 W/m2
17:06 44.1 °F /  6.7 °C 32.3 °F /  0.2 °C 29.71in /  1006hPa SSW 5.0mph /  8km/h 9.0mph /  14.5km/h 63% 0.00in /  0mm 0 W/m2
17:12 43.8 °F /  6.6 °C 33.2 °F /  0.7 °C 29.71in /  1006hPa SW 6.0mph /  9.7km/h 7.0mph /  11.3km/h 66% 0.00in /  0mm 0 W/m2
17:18 42.9 °F /  6.1 °C 33.4 °F /  0.8 °C 29.72in /  1006.3hPa SW 6.0mph /  9.7km/h 7.0mph /  11.3km/h 69% 0.00in /  0mm 0 W/m2
17:24 42.3 °F /  5.7 °C 33.6 °F /  0.9 °C 29.72in /  1006.3hPa SW 6.0mph /  9.7km/h 7.0mph /  11.3km/h 71% 0.00in /  0mm 0 W/m2
17:30 42.1 °F /  5.6 °C 33.7 °F /  0.9 °C 29.72in /  1006.3hPa SSW 5.0mph /  8km/h 5.0mph /  8km/h 72% 0.00in /  0mm 0 W/m2
17:36 42.0 °F /  5.6 °C 33.6 °F /  0.9 °C 29.73in /  1006.7hPa SW 4.0mph /  6.4km/h 5.0mph /  8km/h 72% 0.00in /  0mm 0 W/m2
17:42 42.0 °F /  5.6 °C 33.6 °F /  0.9 °C 29.73in /  1006.7hPa SSW 6.0mph /  9.7km/h 7.0mph /  11.3km/h 72% 0.00in /  0mm 0 W/m2
17:48 41.9 °F /  5.5 °C 33.5 °F /  0.8 °C 29.73in /  1006.7hPa SSW 4.0mph /  6.4km/h 7.0mph /  11.3km/h 72% 0.00in /  0mm 0 W/m2
17:54 41.9 °F /  5.5 °C 33.5 °F /  0.8 °C 29.74in /  1007hPa WSW 2.0mph /  3.2km/h 4.0mph /  6.4km/h 72% 0.00in /  0mm 0 W/m2
18:00 41.7 °F /  5.4 °C 33.3 °F /  0.7 °C 29.73in /  1006.7hPa WSW 2.0mph /  3.2km/h 2.0mph /  3.2km/h 72% 0.00in /  0mm 0 W/m2
18:06 41.6 °F /  5.3 °C 33.2 °F /  0.7 °C 29.74in /  1007hPa WSW 1.0mph /  1.6km/h 2.0mph /  3.2km/h 72% 0.00in /  0mm 0 W/m2
18:12 41.3 °F /  5.2 °C 32.6 °F /  0.3 °C 29.75in /  1007.3hPa Calm   3.0mph /  4.8km/h 71% 0.00in /  0mm 0 W/m2
18:18 40.8 °F /  4.9 °C 31.8 °F /  -0.1 °C 29.75in /  1007.3hPa NW 2.0mph /  3.2km/h 3.0mph /  4.8km/h 70% 0.00in /  0mm 0 W/m2
18:24 40.5 °F /  4.7 °C 31.1 °F /  -0.5 °C 29.76in /  1007.7hPa WNW 3.0mph /  4.8km/h 4.0mph /  6.4km/h 69% 0.00in /  0mm 0 W/m2
18:30 40.3 °F /  4.6 °C 30.6 °F /  -0.8 °C 29.76in /  1007.7hPa NW 2.0mph /  3.2km/h 3.0mph /  4.8km/h 68% 0.00in /  0mm 0 W/m2
18:36 40.2 °F /  4.6 °C 28.6 °F /  -1.9 °C 29.76in /  1007.7hPa WNW 3.0mph /  4.8km/h 7.0mph /  11.3km/h 63% 0.00in /  0mm 0 W/m2
18:42 39.9 °F /  4.4 °C 27.1 °F /  -2.7 °C 29.77in /  1008hPa WSW 4.0mph /  6.4km/h 4.0mph /  6.4km/h 60% 0.00in /  0mm 0 W/m2
18:48 39.8 °F /  4.3 °C 27.0 °F /  -2.8 °C 29.77in /  1008hPa WNW 4.0mph /  6.4km/h 4.0mph /  6.4km/h 60% 0.00in /  0mm 0 W/m2
18:54 39.7 °F /  4.3 °C 26.9 °F /  -2.8 °C 29.77in /  1008hPa WSW 3.0mph /  4.8km/h 7.0mph /  11.3km/h 60% 0.00in /  0mm 0 W/m2
19:00 39.5 °F /  4.2 °C 26.3 °F /  -3.2 °C 29.77in /  1008hPa WSW 5.0mph /  8km/h 6.0mph /  9.7km/h 59% 0.00in /  0mm 0 W/m2
19:06 39.4 °F /  4.1 °C 26.2 °F /  -3.2 °C 29.78in /  1008.4hPa West 5.0mph /  8km/h 6.0mph /  9.7km/h 59% 0.00in /  0mm 0 W/m2
19:12 39.2 °F /  4 °C 26.1 °F /  -3.3 °C 29.78in /  1008.4hPa WSW 4.0mph /  6.4km/h 5.0mph /  8km/h 59% 0.00in /  0mm 0 W/m2
19:18 39.1 °F /  3.9 °C 26.0 °F /  -3.3 °C 29.78in /  1008.4hPa West 4.0mph /  6.4km/h 5.0mph /  8km/h 59% 0.00in /  0mm 0 W/m2
19:24 39.0 °F /  3.9 °C 26.3 °F /  -3.2 °C 29.78in /  1008.4hPa WNW 4.0mph /  6.4km/h 5.0mph /  8km/h 60% 0.00in /  0mm 0 W/m2
19:30 38.8 °F /  3.8 °C 26.5 °F /  -3.1 °C 29.79in /  1008.7hPa NW 4.0mph /  6.4km/h 5.0mph /  8km/h 61% 0.00in /  0mm 0 W/m2
19:36 37.5 °F /  3.1 °C 27.9 °F /  -2.3 °C 29.80in /  1009hPa West 6.0mph /  9.7km/h 8.0mph /  12.9km/h 68% 0.00in /  0mm 0 W/m2
19:42 35.7 °F /  2.1 °C 27.6 °F /  -2.4 °C 29.81in /  1009.4hPa NW 7.0mph /  11.3km/h 7.0mph /  11.3km/h 72% 0.00in /  0mm 0 W/m2
19:48 34.1 °F /  1.2 °C 26.3 °F /  -3.2 °C 29.82in /  1009.7hPa NW 7.0mph /  11.3km/h 11.0mph /  17.7km/h 73% 0.00in /  0mm 0 W/m2
19:54 33.2 °F /  0.7 °C 25.8 °F /  -3.4 °C 29.81in /  1009.4hPa NW 7.0mph /  11.3km/h 7.0mph /  11.3km/h 74% 0.00in /  0mm 0 W/m2
20:00 32.6 °F /  0.3 °C 25.2 °F /  -3.8 °C 29.82in /  1009.7hPa WNW 6.0mph /  9.7km/h 6.0mph /  9.7km/h 74% 0.00in /  0mm 0 W/m2
20:06 31.9 °F /  -0.1 °C 25.2 °F /  -3.8 °C 29.83in /  1010hPa NNW 5.0mph /  8km/h 6.0mph /  9.7km/h 76% 0.00in /  0mm 0 W/m2
20:12 31.3 °F /  -0.4 °C 25.5 °F /  -3.6 °C 29.82in /  1009.7hPa NW 4.0mph /  6.4km/h 7.0mph /  11.3km/h 79% 0.00in /  0mm 0 W/m2
20:18 30.8 °F /  -0.7 °C 24.7 °F /  -4.1 °C 29.82in /  1009.7hPa NW 6.0mph /  9.7km/h 7.0mph /  11.3km/h 78% 0.00in /  0mm 0 W/m2
20:24 30.9 °F /  -0.6 °C 24.5 °F /  -4.2 °C 29.83in /  1010hPa WNW 6.0mph /  9.7km/h 7.0mph /  11.3km/h 77% 0.00in /  0mm 0 W/m2
20:30 30.9 °F /  -0.6 °C 24.5 °F /  -4.2 °C 29.84in /  1010.4hPa NW 6.0mph /  9.7km/h 6.0mph /  9.7km/h 77% 0.00in /  0mm 0 W/m2
20:36 30.7 °F /  -0.7 °C 23.7 °F /  -4.6 °C 29.85in /  1010.7hPa WNW 6.0mph /  9.7km/h 7.0mph /  11.3km/h 75% 0.00in /  0mm 0 W/m2
20:42 30.4 °F /  -0.9 °C 23.1 °F /  -4.9 °C 29.85in /  1010.7hPa West 6.0mph /  9.7km/h 9.0mph /  14.5km/h 74% 0.00in /  0mm 0 W/m2
20:48 30.1 °F /  -1.1 °C 22.8 °F /  -5.1 °C 29.85in /  1010.7hPa NW 5.0mph /  8km/h 9.0mph /  14.5km/h 74% 0.00in /  0mm 0 W/m2
20:54 29.8 °F /  -1.2 °C 22.5 °F /  -5.3 °C 29.86in /  1011.1hPa NW 5.0mph /  8km/h 15.0mph /  24.1km/h 74% 0.00in /  0mm 0 W/m2
21:00 29.4 °F /  -1.4 °C 21.8 °F /  -5.7 °C 29.86in /  1011.1hPa NW 5.0mph /  8km/h 6.0mph /  9.7km/h 73% 0.00in /  0mm 0 W/m2
21:06 29.1 °F /  -1.6 °C 21.2 °F /  -6 °C 29.88in /  1011.7hPa WNW 5.0mph /  8km/h 6.0mph /  9.7km/h 72% 0.00in /  0mm 0 W/m2
21:12 28.7 °F /  -1.8 °C 20.8 °F /  -6.2 °C 29.88in /  1011.7hPa NNW 4.0mph /  6.4km/h 6.0mph /  9.7km/h 72% 0.00in /  0mm 0 W/m2
21:18 28.2 °F /  -2.1 °C 20.3 °F /  -6.5 °C 29.89in /  1012.1hPa WNW 5.0mph /  8km/h 12.0mph /  19.3km/h 72% 0.00in /  0mm 0 W/m2
21:24 28.1 °F /  -2.2 °C 20.2 °F /  -6.6 °C 29.89in /  1012.1hPa NW 6.0mph /  9.7km/h 6.0mph /  9.7km/h 72% 0.00in /  0mm 0 W/m2
21:30 27.8 °F /  -2.3 °C 19.6 °F /  -6.9 °C 29.89in /  1012.1hPa WNW 5.0mph /  8km/h 5.0mph /  8km/h 71% 0.00in /  0mm 0 W/m2
21:36 27.5 °F /  -2.5 °C 19.7 °F /  -6.8 °C 29.90in /  1012.4hPa NNW 5.0mph /  8km/h 6.0mph /  9.7km/h 72% 0.00in /  0mm 0 W/m2
21:42 27.2 °F /  -2.7 °C 19.7 °F /  -6.8 °C 29.89in /  1012.1hPa NW 5.0mph /  8km/h 9.0mph /  14.5km/h 73% 0.00in /  0mm 0 W/m2
21:48 26.7 °F /  -2.9 °C 19.8 °F /  -6.8 °C 29.89in /  1012.1hPa WNW 6.0mph /  9.7km/h 9.0mph /  14.5km/h 75% 0.00in /  0mm 0 W/m2
21:54 26.7 °F /  -2.9 °C 19.2 °F /  -7.1 °C 29.90in /  1012.4hPa West 5.0mph /  8km/h 15.0mph /  24.1km/h 73% 0.00in /  0mm 0 W/m2
22:00 26.7 °F /  -2.9 °C 18.9 °F /  -7.3 °C 29.90in /  1012.4hPa WNW 7.0mph /  11.3km/h 7.0mph /  11.3km/h 72% 0.00in /  0mm 0 W/m2
22:06 25.9 °F /  -3.4 °C 19.1 °F /  -7.2 °C 29.91in /  1012.8hPa WNW 6.0mph /  9.7km/h 8.0mph /  12.9km/h 75% 0.00in /  0mm 0 W/m2
22:12 25.2 °F /  -3.8 °C 19.3 °F /  -7.1 °C 29.91in /  1012.8hPa WNW 6.0mph /  9.7km/h 10.0mph /  16.1km/h 78% 0.00in /  0mm 0 W/m2
22:18 25.0 °F /  -3.9 °C 19.7 °F /  -6.8 °C 29.91in /  1012.8hPa WNW 5.0mph /  8km/h 10.0mph /  16.1km/h 80% 0.00in /  0mm 0 W/m2
22:24 24.9 °F /  -3.9 °C 19.9 °F /  -6.7 °C 29.91in /  1012.8hPa WNW 4.0mph /  6.4km/h 6.0mph /  9.7km/h 81% 0.00in /  0mm 0 W/m2
22:30 24.8 °F /  -4 °C 20.1 °F /  -6.6 °C 29.91in /  1012.8hPa NNW 4.0mph /  6.4km/h 10.0mph /  16.1km/h 82% 0.00in /  0mm 0 W/m2
22:36 24.4 °F /  -4.2 °C 19.4 °F /  -7 °C 29.92in /  1013.1hPa NW 6.0mph /  9.7km/h 10.0mph /  16.1km/h 81% 0.00in /  0mm 0 W/m2
22:42 24.2 °F /  -4.3 °C 18.9 °F /  -7.3 °C 29.93in /  1013.4hPa NW 5.0mph /  8km/h 6.0mph /  9.7km/h 80% 0.00in /  0mm 0 W/m2
22:48 23.7 °F /  -4.6 °C 18.4 °F /  -7.6 °C 29.93in /  1013.4hPa NW 6.0mph /  9.7km/h 8.0mph /  12.9km/h 80% 0.00in /  0mm 0 W/m2
22:54 23.6 °F /  -4.7 °C 18.3 °F /  -7.6 °C 29.92in /  1013.1hPa NW 6.0mph /  9.7km/h 9.0mph /  14.5km/h 80% 0.00in /  0mm 0 W/m2
23:00 23.5 °F /  -4.7 °C 18.2 °F /  -7.7 °C 29.93in /  1013.4hPa NW 4.0mph /  6.4km/h 4.0mph /  6.4km/h 80% 0.00in /  0mm 0 W/m2
23:06 23.3 °F /  -4.8 °C 18.3 °F /  -7.6 °C 29.93in /  1013.4hPa NW 4.0mph /  6.4km/h 7.0mph /  11.3km/h 81% 0.00in /  0mm 0 W/m2
23:12 23.2 °F /  -4.9 °C 17.9 °F /  -7.8 °C 29.93in /  1013.4hPa NW 5.0mph /  8km/h 5.0mph /  8km/h 80% 0.00in /  0mm 0 W/m2
23:18 23.2 °F /  -4.9 °C 17.9 °F /  -7.8 °C 29.94in /  1013.8hPa NNW 4.0mph /  6.4km/h 5.0mph /  8km/h 80% 0.00in /  0mm 0 W/m2
23:24 23.2 °F /  -4.9 °C 17.9 °F /  -7.8 °C 29.93in /  1013.4hPa NW 3.0mph /  4.8km/h 4.0mph /  6.4km/h 80% 0.00in /  0mm 0 W/m2
23:30 23.3 °F /  -4.8 °C 17.7 °F /  -7.9 °C 29.94in /  1013.8hPa NNW 3.0mph /  4.8km/h 3.0mph /  4.8km/h 79% 0.00in /  0mm 0 W/m2
23:36 23.2 °F /  -4.9 °C 17.4 °F /  -8.1 °C 29.93in /  1013.4hPa NNW 4.0mph /  6.4km/h 9.0mph /  14.5km/h 78% 0.00in /  0mm 0 W/m2
23:42 23.1 °F /  -4.9 °C 17.0 °F /  -8.3 °C 29.93in /  1013.4hPa NNW 5.0mph /  8km/h 5.0mph /  8km/h 77% 0.00in /  0mm 0 W/m2
23:48 23.2 °F /  -4.9 °C 16.4 °F /  -8.7 °C 29.93in /  1013.4hPa NNW 4.0mph /  6.4km/h 6.0mph /  9.7km/h 75% 0.00in /  0mm 0 W/m2
23:54 23.5 °F /  -4.7 °C 16.4 °F /  -8.7 °C 29.94in /  1013.8hPa NNW 5.0mph /  8km/h 9.0mph /  14.5km/h 74% 0.00in /  0mm 0 W/m2
Country Meadow, Clay, NY, USA
Compliments of Weather Underground - 2 mb